Flight Track Log - Related Links

Times and Time Zones

All times are in EDT time to prevent confusion due to time zone crossing. See the JBU739 flight status page for this flight to view local times or setup timezone preferences in your user account.

Time Position Orientation Groundspeed Altitude Reporting Facility
EDT Latitude Longitude Course Direction KTS MPH feet Rate Location/Type
Sat 12:11:18 AM 40.6167 -73.7833 207° Southwest 166 191 1,200  Level New York TRACON
Sat 12:12:18 AM 40.5667 -73.8167 122° Southeast 213 245 2,600 2,412 Climbing New York TRACON
Sat 12:14:32 AM 40.4889 -73.6556 115° Southeast 262 302 9,000 2,642 Climbing New York Center
Sat 12:15:31 AM 40.4539 -73.5586 144° Southeast 285 328 11,100 1,815 Climbing New York Center
Sat 12:16:31 AM 40.3744 -73.4817 150° Southeast 337 388 12,600 1,785 Climbing New York Center
Sat 12:17:32 AM 40.2842 -73.4128 152° Southeast 362 417 14,700 1,916 Climbing New York Center
Sat 12:18:30 AM 40.1858 -73.3439 151° Southeast 392 451 16,400 1,729 Climbing New York Center
Sat 12:19:30 AM 40.0872 -73.2725 151° Southeast 400 460 18,100 1,707 Climbing New York Center
Sat 12:20:33 AM 39.9969 -73.2069 151° Southeast 406 467 19,900 1,574 Climbing New York Center
Sat 12:21:32 AM 39.8942 -73.1328 150° Southeast 411 473 21,300 1,525 Climbing New York Center
Sat 12:22:31 AM 39.7875 -73.0536 152° Southeast 422 486 22,900 1,322 Climbing New York Center
Sat 12:23:30 AM 39.6783 -72.9772 152° Southeast 434 499 23,900 1,140 Climbing New York Center
Sat 12:24:32 AM 39.5694 -72.9036 150° Southeast 440 506 25,200 1,300 Climbing New York Center
Sat 12:25:30 AM 39.4561 -72.8197 151° Southeast 451 519 26,500 1,190 Climbing New York Center
Sat 12:26:33 AM 39.3408 -72.7356 152° Southeast 461 531 27,600 1,091 Climbing New York Center
Sat 12:27:31 AM 39.2233 -72.6547 151° Southeast 466 536 28,700 1,008 Climbing New York Center
Sat 12:28:32 AM 39.1081 -72.5714 150° Southeast 472 543 29,600 1,160 Climbing New York Center
Sat 12:29:30 AM 38.9864 -72.4828 152° Southeast 478 550 31,000 1,339 Climbing New York Center
Sat 12:30:33 AM 38.8706 -72.4025 155° Southeast 478 550 32,300 1,200 Climbing New York Center
Sat 12:31:30 AM 38.7528 -72.3333 151° Southeast 473 544 33,400 1,261 Climbing New York Center
Sat 12:32:32 AM 38.6392 -72.2511 150° Southeast 468 539 34,800 1,328 Climbing New York Center
Sat 12:33:32 AM 38.5297 -72.1692 148° Southeast 468 539 36,100 992 Climbing New York Center
Sat 12:34:33 AM 38.4222 -72.0822 156° South 455 524 36,800 450 Climbing New York Center
Sat 12:35:32 AM 38.3125 -72.0192 149° Southeast 449 517 37,000 100 Climbing New York Center
Sat 12:36:33 AM 38.2008 -71.9328 154° Southeast 449 517 37,000  Level New York Center
Sat 12:37:33 AM 38.0867 -71.8622 150° Southeast 454 522 37,000 -50 Level New York Center
Sat 12:38:32 AM 37.9747 -71.7814 154° Southeast 454 522 36,900 -51 Descending New York Center
Sat 12:39:30 AM 37.8628 -71.7114 148° Southeast 454 522 36,900  Level New York Center
Sat 12:40:30 AM 37.7531 -71.6258 154° Southeast 451 519 36,900 50 Level New York Center
Sat 12:41:30 AM 37.6367 -71.5536 151° Southeast 457 526 37,000 49 Climbing New York Center
Sat 12:42:32 AM 37.5244 -71.4764 157° South 457 526 37,000  Level New York Center
Sat 12:43:30 AM 37.4081 -71.4153 156° South 457 526 37,000  Level New York Center
Sat 12:44:32 AM 37.3061 -71.3594 168° South 436 502 37,000 -49 Level New York Center
Sat 12:45:32 AM 37.1750 -71.3244 148° Southeast 455 524 36,900 -50 Descending New York Center
Sat 12:46:32 AM 37.0794 -71.2508 157° South 422 486 36,900  Level New York Center
Sat 12:47:32 AM 36.9525 -71.1822 151° Southeast 416 479 36,900 51 Level New York Center
Sat 12:48:30 AM 36.8547 -71.1142 155° Southeast 423 487 37,000 51 Climbing New York Center
Sat 12:49:30 AM 36.7381 -71.0464 154° Southeast 438 504 37,000  Level New York Center
Sat 12:50:32 AM 36.6275 -70.9786 158° South 451 519 37,000 -49 Level New York Center
Sat 12:51:32 AM 36.5047 -70.9161 153° Southeast 461 531 36,900  Descending New York Center
Sat 12:58:38 AM 35.7667 -70.4500 168° South 435 501 37,000 Climbing New York Oceanic (ODAPS)
Sat 01:40:23 AM 30.9000 -69.2333 168° South 433 498 37,000  Level New York Oceanic (ODAPS)
Sat 02:04:45 AM 27.9333 -68.5333 169° South 450 518 37,000  Level New York Oceanic (ODAPS)
Sat 02:24:44 AM 25.4667 -68.0000 170° South 455 524 37,000  Level New York Oceanic (ODAPS)
Sat 02:40:00 AM 23.4500 -67.6000 169° South 460 529 37,000  Level San Juan Center
Sat 02:45:01 AM 22.8000 -67.4667 172° South 460 529 37,000  Level San Juan Center
Sat 02:46:02 AM 22.6833 -67.4500 167° South 460 529 37,000  Level San Juan Center
Sat 02:47:02 AM 22.5500 -67.4167 172° South 470 541 37,000  Level San Juan Center
Sat 02:48:02 AM 22.4333 -67.4000 167° South 460 529 37,000  Level San Juan Center
Sat 02:49:02 AM 22.3000 -67.3667 173° South 450 518 37,000  Level San Juan Center
Sat 02:50:03 AM 22.1667 -67.3500 25° Northeast 470 541 37,000  Level San Juan Center
Sat 02:50:05 AM 22.2333 -67.3167 180° South 443 510 37,000  Level New York Oceanic (ODAPS)
Sat 02:51:03 AM 22.0500 -67.3167 167° South 460 529 37,000  Level San Juan Center
Sat 02:52:03 AM 21.9167 -67.2833 172° South 460 529 37,000  Level San Juan Center
Sat 02:53:03 AM 21.8000 -67.2667 167° South 460 529 37,000  Level San Juan Center
Sat 02:54:04 AM 21.6667 -67.2333 173° South 460 529 37,000  Level San Juan Center
Sat 02:55:04 AM 21.5333 -67.2167 172° South 460 529 37,000  Level San Juan Center
Sat 02:56:05 AM 21.4167 -67.2000 167° South 460 529 37,000  Level San Juan Center
Sat 02:57:05 AM 21.2833 -67.1667 173° South 460 529 37,000  Level San Juan Center
Sat 02:58:05 AM 21.1500 -67.1500 172° South 470 541 37,000  Level San Juan Center
Sat 02:59:06 AM 21.0333 -67.1333 167° South 450 518 37,000  Level San Juan Center
Sat 03:00:06 AM 20.9000 -67.1000 173° South 460 529 37,000  Level San Juan Center
Sat 03:01:07 AM 20.7667 -67.0833 173° South 460 529 37,000  Level San Juan Center
Sat 03:02:06 AM 20.6333 -67.0667 172° South 460 529 37,000  Level San Juan Center
Sat 03:03:07 AM 20.5167 -67.0500 167° South 460 529 37,000  Level San Juan Center
Sat 03:04:07 AM 20.3833 -67.0167 173° South 460 529 37,000  Level San Juan Center
Sat 03:05:08 AM 20.2500 -67.0000 172° South 470 541 37,000  Level San Juan Center
Sat 03:06:07 AM 20.1333 -66.9833 173° South 470 541 37,000 -250 Level San Juan Center
Sat 03:07:08 AM 20.0000 -66.9667 173° South 470 541 36,500 -694 Descending San Juan Center
Sat 03:08:08 AM 19.8667 -66.9500 167° South 460 529 35,600 -893 Descending San Juan Center
Sat 03:09:09 AM 19.7333 -66.9167 172° South 470 541 34,700 -1,041 Descending San Juan Center
Sat 03:10:09 AM 19.6167 -66.9000 175° South 460 529 33,500 -1,100 Descending San Juan Center
Sat 03:11:09 AM 19.4500 -66.8833 167° South 470 541 32,500 -1,537 Descending San Juan Center
Sat 03:12:10 AM 19.3167 -66.8500 173° South 470 541 30,400 -2,182 Descending San Juan Center
Sat 03:13:10 AM 19.1833 -66.8333 172° South 470 541 28,100 -2,250 Descending San Juan Center
Sat 03:14:10 AM 19.0667 -66.8167 172° South 460 529 25,900 -2,150 Descending San Juan Center
Sat 03:15:10 AM 18.9500 -66.8000 173° South 450 518 23,800 -2,200 Descending San Juan Center
Sat 03:16:10 AM 18.8167 -66.7833 172° South 440 506 21,500 -2,231 Descending San Juan Center
Sat 03:17:11 AM 18.7000 -66.7667 172° South 420 483 19,300 -2,132 Descending San Juan Center
Sat 03:18:11 AM 18.5833 -66.7500 162° South 400 460 17,200 -2,033 Descending San Juan Center
Sat 03:19:12 AM 18.4833 -66.7167 180° South 380 437 15,200 -1,983 Descending San Juan Center
Sat 03:20:12 AM 18.3833 -66.7167 171° South 370 426 13,200 -1,900 Descending San Juan Center
Sat 03:21:12 AM 18.2833 -66.7000 171° South 360 414 11,400 -1,488 Descending San Juan Center
Sat 03:22:13 AM 18.1833 -66.6833 167° South 330 380 10,200 -1,488 Descending San Juan Center
Sat 03:23:13 AM 18.1167 -66.6667 169° South 290 334 8,400 -1,900 Descending San Juan Center
Sat 03:24:13 AM 18.0333 -66.6500 169° South 290 334 6,400 -1,537 Descending San Juan Center
Sat 03:25:14 AM 17.9500 -66.6333 180° South 300 345 5,300 -545 Descending San Juan Center
Sat 03:26:14 AM 17.8833 -66.6333 105° East 250 288 5,300  Level San Juan Center
Sat 03:27:15 AM 17.8667 -66.5667 109° East 210 242 5,300 -545 Level San Juan Center
Sat 03:28:15 AM 17.8500 -66.5167 90° East 190 219 4,200 -843 Descending San Juan Center
Sat 03:29:16 AM 17.8500 -66.4667 90° East 180 207 3,600 -298 Descending San Juan Center
Sat 03:30:16 AM 17.8500 -66.4167 25° Northeast 150 173 3,600 50 Level San Juan Center
Sat 03:31:17 AM 17.8833 -66.4000 25° Northeast 160 184 3,700 -50 Climbing San Juan Center
Sat 03:32:17 AM 17.9167 -66.3833 316° Northwest 160 184 3,500 -595 Descending San Juan Center
Sat 03:33:18 AM 17.9500 -66.4167 293° West 160 184 2,500 -895 Descending San Juan Center
Sat 03:35:18 AM 17.9833 -66.5000 293° West 150 173 800 -850 Descending San Juan Center

Login

Don't have an account? Register now (free) for customized features, flight alerts, and more!